sensor_id;sensor_type;location;lat;lon;timestamp;P1;durP1;ratioP1;P2;durP2;ratioP2
3653;SDS011;70277;54.302;10.064;2023-06-05T00:01:16;7.43;;;3.15;;
3653;SDS011;70277;54.302;10.064;2023-06-05T00:03:43;4.18;;;2.60;;
3653;SDS011;70277;54.302;10.064;2023-06-05T00:06:10;4.80;;;2.70;;
3653;SDS011;70277;54.302;10.064;2023-06-05T00:08:37;5.57;;;2.40;;
3653;SDS011;70277;54.302;10.064;2023-06-05T00:11:03;3.67;;;2.55;;
3653;SDS011;70277;54.302;10.064;2023-06-05T00:13:30;6.40;;;2.70;;
3653;SDS011;70277;54.302;10.064;2023-06-05T00:15:56;5.88;;;2.50;;
3653;SDS011;70277;54.302;10.064;2023-06-05T00:18:23;4.55;;;2.65;;
3653;SDS011;70277;54.302;10.064;2023-06-05T00:20:50;5.50;;;2.90;;
3653;SDS011;70277;54.302;10.064;2023-06-05T00:23:17;3.65;;;2.38;;
3653;SDS011;70277;54.302;10.064;2023-06-05T00:25:43;4.03;;;2.75;;
3653;SDS011;70277;54.302;10.064;2023-06-05T00:28:10;5.35;;;2.92;;
3653;SDS011;70277;54.302;10.064;2023-06-05T00:30:36;5.30;;;2.78;;
3653;SDS011;70277;54.302;10.064;2023-06-05T00:33:03;4.32;;;3.08;;
3653;SDS011;70277;54.302;10.064;2023-06-05T00:35:30;4.93;;;2.67;;
3653;SDS011;70277;54.302;10.064;2023-06-05T00:37:57;5.32;;;3.38;;
3653;SDS011;70277;54.302;10.064;2023-06-05T00:40:24;5.20;;;2.60;;
3653;SDS011;70277;54.302;10.064;2023-06-05T00:42:50;9.32;;;3.50;;
3653;SDS011;70277;54.302;10.064;2023-06-05T00:45:16;4.53;;;3.05;;
3653;SDS011;70277;54.302;10.064;2023-06-05T00:47:43;4.90;;;2.90;;
3653;SDS011;70277;54.302;10.064;2023-06-05T00:50:10;5.30;;;2.67;;
3653;SDS011;70277;54.302;10.064;2023-06-05T00:52:38;4.00;;;2.63;;
3653;SDS011;70277;54.302;10.064;2023-06-05T00:55:06;5.40;;;3.13;;
3653;SDS011;70277;54.302;10.064;2023-06-05T00:57:33;4.55;;;2.60;;
3653;SDS011;70277;54.302;10.064;2023-06-05T01:00:02;5.80;;;2.78;;
3653;SDS011;70277;54.302;10.064;2023-06-05T01:02:32;3.13;;;2.70;;
3653;SDS011;70277;54.302;10.064;2023-06-05T01:05:00;5.25;;;3.30;;
3653;SDS011;70277;54.302;10.064;2023-06-05T01:07:29;3.08;;;2.72;;
3653;SDS011;70277;54.302;10.064;2023-06-05T01:09:59;8.63;;;2.65;;
3653;SDS011;70277;54.302;10.064;2023-06-05T01:15:12;5.18;;;2.78;;
3653;SDS011;70277;54.302;10.064;2023-06-05T01:17:42;5.85;;;3.10;;
3653;SDS011;70277;54.302;10.064;2023-06-05T01:20:13;7.53;;;3.05;;
3653;SDS011;70277;54.302;10.064;2023-06-05T01:22:40;5.60;;;3.45;;
3653;SDS011;70277;54.302;10.064;2023-06-05T01:25:06;6.00;;;3.63;;
3653;SDS011;70277;54.302;10.064;2023-06-05T01:27:42;5.70;;;3.08;;
3653;SDS011;70277;54.302;10.064;2023-06-05T01:38:17;3.85;;;3.03;;
3653;SDS011;70277;54.302;10.064;2023-06-05T01:40:45;5.68;;;2.88;;
3653;SDS011;70277;54.302;10.064;2023-06-05T01:43:14;3.58;;;2.67;;
3653;SDS011;70277;54.302;10.064;2023-06-05T01:45:41;4.80;;;2.97;;
3653;SDS011;70277;54.302;10.064;2023-06-05T01:48:08;6.20;;;2.85;;
3653;SDS011;70277;54.302;10.064;2023-06-05T01:50:38;3.10;;;2.50;;
3653;SDS011;70277;54.302;10.064;2023-06-05T01:53:08;2.95;;;2.42;;
3653;SDS011;70277;54.302;10.064;2023-06-05T01:55:37;3.42;;;3.13;;
3653;SDS011;70277;54.302;10.064;2023-06-05T01:58:05;5.20;;;2.75;;
3653;SDS011;70277;54.302;10.064;2023-06-05T02:00:31;7.10;;;2.60;;
3653;SDS011;70277;54.302;10.064;2023-06-05T02:02:58;5.90;;;2.85;;
3653;SDS011;70277;54.302;10.064;2023-06-05T02:05:25;5.43;;;2.88;;
3653;SDS011;70277;54.302;10.064;2023-06-05T02:07:53;8.38;;;3.50;;
3653;SDS011;70277;54.302;10.064;2023-06-05T02:10:20;4.30;;;3.10;;
3653;SDS011;70277;54.302;10.064;2023-06-05T02:12:47;7.50;;;3.15;;
3653;SDS011;70277;54.302;10.064;2023-06-05T02:15:14;4.63;;;2.92;;
3653;SDS011;70277;54.302;10.064;2023-06-05T02:17:42;3.50;;;2.63;;
3653;SDS011;70277;54.302;10.064;2023-06-05T02:20:17;5.50;;;3.10;;
3653;SDS011;70277;54.302;10.064;2023-06-05T02:22:44;4.85;;;3.08;;
3653;SDS011;70277;54.302;10.064;2023-06-05T02:25:11;8.30;;;3.80;;
3653;SDS011;70277;54.302;10.064;2023-06-05T02:27:39;7.88;;;4.00;;
3653;SDS011;70277;54.302;10.064;2023-06-05T02:30:05;7.43;;;4.10;;
3653;SDS011;70277;54.302;10.064;2023-06-05T02:32:33;9.73;;;4.65;;
3653;SDS011;70277;54.302;10.064;2023-06-05T02:35:00;13.57;;;6.20;;
3653;SDS011;70277;54.302;10.064;2023-06-05T02:37:27;19.20;;;8.35;;
3653;SDS011;70277;54.302;10.064;2023-06-05T02:39:54;24.42;;;8.40;;
3653;SDS011;70277;54.302;10.064;2023-06-05T02:42:21;16.02;;;7.63;;
3653;SDS011;70277;54.302;10.064;2023-06-05T02:44:47;15.90;;;7.65;;
3653;SDS011;70277;54.302;10.064;2023-06-05T02:47:14;17.90;;;7.45;;
3653;SDS011;70277;54.302;10.064;2023-06-05T02:49:41;14.55;;;6.10;;
3653;SDS011;70277;54.302;10.064;2023-06-05T02:52:07;13.13;;;6.38;;
3653;SDS011;70277;54.302;10.064;2023-06-05T02:54:34;18.77;;;6.43;;
3653;SDS011;70277;54.302;10.064;2023-06-05T02:57:01;18.25;;;8.10;;
3653;SDS011;70277;54.302;10.064;2023-06-05T02:59:27;11.82;;;5.28;;
3653;SDS011;70277;54.302;10.064;2023-06-05T03:01:53;10.05;;;5.72;;
3653;SDS011;70277;54.302;10.064;2023-06-05T03:04:20;13.10;;;5.55;;
3653;SDS011;70277;54.302;10.064;2023-06-05T03:06:50;16.50;;;7.10;;
3653;SDS011;70277;54.302;10.064;2023-06-05T03:09:19;13.50;;;6.25;;
3653;SDS011;70277;54.302;10.064;2023-06-05T03:11:46;12.85;;;6.28;;
3653;SDS011;70277;54.302;10.064;2023-06-05T03:14:12;13.77;;;7.32;;
3653;SDS011;70277;54.302;10.064;2023-06-05T03:16:39;15.85;;;6.88;;
3653;SDS011;70277;54.302;10.064;2023-06-05T03:19:09;16.17;;;6.78;;
3653;SDS011;70277;54.302;10.064;2023-06-05T03:21:37;22.08;;;7.05;;
3653;SDS011;70277;54.302;10.064;2023-06-05T03:24:06;11.60;;;6.32;;
3653;SDS011;70277;54.302;10.064;2023-06-05T03:26:35;13.80;;;6.40;;
3653;SDS011;70277;54.302;10.064;2023-06-05T03:29:01;13.32;;;6.47;;
3653;SDS011;70277;54.302;10.064;2023-06-05T03:31:27;13.50;;;6.55;;
3653;SDS011;70277;54.302;10.064;2023-06-05T03:33:54;14.93;;;7.57;;
3653;SDS011;70277;54.302;10.064;2023-06-05T03:36:21;19.00;;;7.65;;
3653;SDS011;70277;54.302;10.064;2023-06-05T03:38:47;13.75;;;6.85;;
3653;SDS011;70277;54.302;10.064;2023-06-05T03:41:14;13.32;;;6.75;;
3653;SDS011;70277;54.302;10.064;2023-06-05T03:43:40;14.00;;;6.80;;
3653;SDS011;70277;54.302;10.064;2023-06-05T03:46:07;11.98;;;6.60;;
3653;SDS011;70277;54.302;10.064;2023-06-05T03:48:33;10.88;;;6.07;;
3653;SDS011;70277;54.302;10.064;2023-06-05T03:51:00;16.75;;;6.13;;
3653;SDS011;70277;54.302;10.064;2023-06-05T03:53:26;16.02;;;6.70;;
3653;SDS011;70277;54.302;10.064;2023-06-05T03:55:55;11.15;;;5.40;;
3653;SDS011;70277;54.302;10.064;2023-06-05T03:58:23;19.27;;;6.03;;
3653;SDS011;70277;54.302;10.064;2023-06-05T04:00:49;11.00;;;6.13;;
3653;SDS011;70277;54.302;10.064;2023-06-05T04:03:16;12.52;;;5.68;;
3653;SDS011;70277;54.302;10.064;2023-06-05T04:05:44;11.95;;;6.25;;
3653;SDS011;70277;54.302;10.064;2023-06-05T04:08:11;12.05;;;5.85;;
3653;SDS011;70277;54.302;10.064;2023-06-05T04:10:37;7.95;;;5.40;;
3653;SDS011;70277;54.302;10.064;2023-06-05T04:13:04;12.52;;;6.18;;
3653;SDS011;70277;54.302;10.064;2023-06-05T04:15:32;10.88;;;6.13;;
3653;SDS011;70277;54.302;10.064;2023-06-05T04:17:59;8.05;;;5.90;;
3653;SDS011;70277;54.302;10.064;2023-06-05T04:20:26;19.75;;;7.38;;
3653;SDS011;70277;54.302;10.064;2023-06-05T04:22:53;12.25;;;6.60;;
3653;SDS011;70277;54.302;10.064;2023-06-05T04:25:19;9.93;;;6.05;;
3653;SDS011;70277;54.302;10.064;2023-06-05T04:27:47;11.45;;;5.88;;
3653;SDS011;70277;54.302;10.064;2023-06-05T04:30:16;10.93;;;6.45;;
3653;SDS011;70277;54.302;10.064;2023-06-05T04:32:43;13.07;;;6.50;;
3653;SDS011;70277;54.302;10.064;2023-06-05T04:35:20;8.73;;;6.50;;
3653;SDS011;70277;54.302;10.064;2023-06-05T04:37:47;13.23;;;6.05;;
3653;SDS011;70277;54.302;10.064;2023-06-05T04:40:14;12.73;;;6.43;;
3653;SDS011;70277;54.302;10.064;2023-06-05T04:42:42;12.73;;;6.25;;
3653;SDS011;70277;54.302;10.064;2023-06-05T04:45:08;14.05;;;6.25;;
3653;SDS011;70277;54.302;10.064;2023-06-05T04:47:35;10.88;;;6.55;;
3653;SDS011;70277;54.302;10.064;2023-06-05T04:50:03;10.98;;;6.18;;
3653;SDS011;70277;54.302;10.064;2023-06-05T04:52:31;14.98;;;6.30;;
3653;SDS011;70277;54.302;10.064;2023-06-05T04:54:59;11.25;;;6.78;;
3653;SDS011;70277;54.302;10.064;2023-06-05T04:57:28;13.77;;;6.65;;
3653;SDS011;70277;54.302;10.064;2023-06-05T04:59:55;11.63;;;6.53;;
3653;SDS011;70277;54.302;10.064;2023-06-05T05:02:25;10.68;;;6.78;;
3653;SDS011;70277;54.302;10.064;2023-06-05T05:04:52;13.77;;;6.70;;
3653;SDS011;70277;54.302;10.064;2023-06-05T05:07:19;19.23;;;6.45;;
3653;SDS011;70277;54.302;10.064;2023-06-05T05:09:45;11.07;;;5.70;;
3653;SDS011;70277;54.302;10.064;2023-06-05T05:12:12;9.45;;;6.07;;
3653;SDS011;70277;54.302;10.064;2023-06-05T05:14:38;8.45;;;5.78;;
3653;SDS011;70277;54.302;10.064;2023-06-05T05:17:07;12.77;;;6.45;;
3653;SDS011;70277;54.302;10.064;2023-06-05T05:19:34;9.60;;;6.03;;
3653;SDS011;70277;54.302;10.064;2023-06-05T05:22:00;11.35;;;5.97;;
3653;SDS011;70277;54.302;10.064;2023-06-05T05:24:27;11.00;;;6.10;;
3653;SDS011;70277;54.302;10.064;2023-06-05T05:26:53;11.05;;;5.50;;
3653;SDS011;70277;54.302;10.064;2023-06-05T05:29:20;13.85;;;6.43;;
3653;SDS011;70277;54.302;10.064;2023-06-05T05:31:46;10.50;;;5.55;;
3653;SDS011;70277;54.302;10.064;2023-06-05T05:34:13;7.25;;;5.50;;
3653;SDS011;70277;54.302;10.064;2023-06-05T05:36:39;14.48;;;6.43;;
3653;SDS011;70277;54.302;10.064;2023-06-05T05:39:06;10.30;;;5.88;;
3653;SDS011;70277;54.302;10.064;2023-06-05T05:41:34;8.77;;;5.68;;
3653;SDS011;70277;54.302;10.064;2023-06-05T05:44:01;10.75;;;5.82;;
3653;SDS011;70277;54.302;10.064;2023-06-05T05:46:27;16.63;;;6.10;;
3653;SDS011;70277;54.302;10.064;2023-06-05T05:48:54;8.27;;;5.78;;
3653;SDS011;70277;54.302;10.064;2023-06-05T05:51:21;9.52;;;6.00;;
3653;SDS011;70277;54.302;10.064;2023-06-05T05:53:47;10.73;;;6.05;;
3653;SDS011;70277;54.302;10.064;2023-06-05T05:56:14;10.63;;;5.18;;
3653;SDS011;70277;54.302;10.064;2023-06-05T05:58:40;9.75;;;5.65;;
3653;SDS011;70277;54.302;10.064;2023-06-05T06:01:07;10.40;;;5.75;;
3653;SDS011;70277;54.302;10.064;2023-06-05T06:03:34;9.18;;;5.70;;
3653;SDS011;70277;54.302;10.064;2023-06-05T06:06:03;10.63;;;5.07;;
3653;SDS011;70277;54.302;10.064;2023-06-05T06:08:33;11.38;;;5.60;;
3653;SDS011;70277;54.302;10.064;2023-06-05T06:11:01;8.38;;;4.75;;
3653;SDS011;70277;54.302;10.064;2023-06-05T06:13:30;7.82;;;5.00;;
3653;SDS011;70277;54.302;10.064;2023-06-05T06:15:56;7.70;;;5.18;;
3653;SDS011;70277;54.302;10.064;2023-06-05T06:18:23;9.57;;;5.63;;
3653;SDS011;70277;54.302;10.064;2023-06-05T06:20:49;6.80;;;5.32;;
3653;SDS011;70277;54.302;10.064;2023-06-05T06:23:16;12.88;;;4.68;;
3653;SDS011;70277;54.302;10.064;2023-06-05T06:25:43;12.13;;;5.10;;
3653;SDS011;70277;54.302;10.064;2023-06-05T06:28:09;10.65;;;4.88;;
3653;SDS011;70277;54.302;10.064;2023-06-05T06:30:36;15.73;;;6.00;;
3653;SDS011;70277;54.302;10.064;2023-06-05T06:33:02;15.50;;;5.15;;
3653;SDS011;70277;54.302;10.064;2023-06-05T06:35:30;7.82;;;5.10;;
3653;SDS011;70277;54.302;10.064;2023-06-05T06:37:59;12.07;;;5.53;;
3653;SDS011;70277;54.302;10.064;2023-06-05T06:40:26;9.63;;;5.30;;
3653;SDS011;70277;54.302;10.064;2023-06-05T06:42:55;12.20;;;4.70;;
3653;SDS011;70277;54.302;10.064;2023-06-05T06:45:22;9.73;;;4.93;;
3653;SDS011;70277;54.302;10.064;2023-06-05T06:47:48;12.20;;;5.10;;
3653;SDS011;70277;54.302;10.064;2023-06-05T06:50:32;8.82;;;4.47;;
3653;SDS011;70277;54.302;10.064;2023-06-05T06:52:58;14.98;;;5.25;;
3653;SDS011;70277;54.302;10.064;2023-06-05T06:55:25;11.82;;;5.10;;
3653;SDS011;70277;54.302;10.064;2023-06-05T06:57:52;9.85;;;5.05;;
3653;SDS011;70277;54.302;10.064;2023-06-05T07:00:18;7.38;;;4.53;;
3653;SDS011;70277;54.302;10.064;2023-06-05T07:02:46;12.68;;;4.68;;
3653;SDS011;70277;54.302;10.064;2023-06-05T07:05:13;9.98;;;5.18;;
3653;SDS011;70277;54.302;10.064;2023-06-05T07:07:40;11.13;;;4.35;;
3653;SDS011;70277;54.302;10.064;2023-06-05T07:10:07;7.85;;;4.88;;
3653;SDS011;70277;54.302;10.064;2023-06-05T07:12:34;15.88;;;4.50;;
3653;SDS011;70277;54.302;10.064;2023-06-05T07:15:00;10.52;;;4.78;;
3653;SDS011;70277;54.302;10.064;2023-06-05T07:17:27;10.95;;;4.60;;
3653;SDS011;70277;54.302;10.064;2023-06-05T07:19:56;10.73;;;5.00;;
3653;SDS011;70277;54.302;10.064;2023-06-05T07:22:23;8.25;;;4.32;;
3653;SDS011;70277;54.302;10.064;2023-06-05T07:24:53;8.93;;;4.28;;
3653;SDS011;70277;54.302;10.064;2023-06-05T07:27:20;8.13;;;4.18;;
3653;SDS011;70277;54.302;10.064;2023-06-05T07:29:46;8.05;;;4.97;;
3653;SDS011;70277;54.302;10.064;2023-06-05T07:32:17;9.60;;;4.95;;
3653;SDS011;70277;54.302;10.064;2023-06-05T07:34:44;9.20;;;4.85;;
3653;SDS011;70277;54.302;10.064;2023-06-05T07:37:11;8.40;;;4.40;;
3653;SDS011;70277;54.302;10.064;2023-06-05T07:39:38;10.77;;;4.63;;
3653;SDS011;70277;54.302;10.064;2023-06-05T07:42:04;9.50;;;4.10;;
3653;SDS011;70277;54.302;10.064;2023-06-05T07:44:32;10.00;;;4.57;;
3653;SDS011;70277;54.302;10.064;2023-06-05T07:46:58;9.73;;;4.00;;
3653;SDS011;70277;54.302;10.064;2023-06-05T07:49:24;5.60;;;3.65;;
3653;SDS011;70277;54.302;10.064;2023-06-05T07:51:51;9.82;;;4.60;;
3653;SDS011;70277;54.302;10.064;2023-06-05T07:54:17;13.18;;;4.93;;
3653;SDS011;70277;54.302;10.064;2023-06-05T07:56:45;10.73;;;4.57;;
3653;SDS011;70277;54.302;10.064;2023-06-05T07:59:15;7.65;;;3.80;;
3653;SDS011;70277;54.302;10.064;2023-06-05T08:01:42;9.23;;;4.20;;
3653;SDS011;70277;54.302;10.064;2023-06-05T08:04:09;8.52;;;4.43;;
3653;SDS011;70277;54.302;10.064;2023-06-05T08:09:06;9.60;;;4.43;;
3653;SDS011;70277;54.302;10.064;2023-06-05T08:11:36;12.07;;;4.32;;
3653;SDS011;70277;54.302;10.064;2023-06-05T08:14:04;7.30;;;3.90;;
3653;SDS011;70277;54.302;10.064;2023-06-05T08:16:35;13.30;;;4.40;;
3653;SDS011;70277;54.302;10.064;2023-06-05T08:19:02;11.98;;;4.03;;
3653;SDS011;70277;54.302;10.064;2023-06-05T08:21:29;6.53;;;3.60;;
3653;SDS011;70277;54.302;10.064;2023-06-05T08:23:56;16.52;;;4.28;;
3653;SDS011;70277;54.302;10.064;2023-06-05T08:26:22;15.02;;;4.60;;
3653;SDS011;70277;54.302;10.064;2023-06-05T08:28:49;13.68;;;4.20;;
3653;SDS011;70277;54.302;10.064;2023-06-05T08:31:16;5.90;;;3.35;;
3653;SDS011;70277;54.302;10.064;2023-06-05T08:33:43;4.72;;;3.17;;
3653;SDS011;70277;54.302;10.064;2023-06-05T08:36:09;8.05;;;3.50;;
3653;SDS011;70277;54.302;10.064;2023-06-05T08:38:36;7.63;;;3.55;;
3653;SDS011;70277;54.302;10.064;2023-06-05T08:41:07;5.85;;;3.10;;
3653;SDS011;70277;54.302;10.064;2023-06-05T08:43:38;7.07;;;3.50;;
3653;SDS011;70277;54.302;10.064;2023-06-05T08:46:10;9.48;;;3.50;;
3653;SDS011;70277;54.302;10.064;2023-06-05T08:48:41;8.15;;;3.55;;
3653;SDS011;70277;54.302;10.064;2023-06-05T08:51:10;7.30;;;3.42;;
3653;SDS011;70277;54.302;10.064;2023-06-05T08:53:39;6.27;;;3.10;;
3653;SDS011;70277;54.302;10.064;2023-06-05T08:56:08;6.85;;;3.17;;
3653;SDS011;70277;54.302;10.064;2023-06-05T08:58:36;10.52;;;3.60;;
3653;SDS011;70277;54.302;10.064;2023-06-05T09:01:03;7.78;;;3.25;;
3653;SDS011;70277;54.302;10.064;2023-06-05T09:03:32;6.05;;;3.10;;
3653;SDS011;70277;54.302;10.064;2023-06-05T09:05:59;5.28;;;3.10;;
3653;SDS011;70277;54.302;10.064;2023-06-05T09:08:27;6.07;;;2.75;;
3653;SDS011;70277;54.302;10.064;2023-06-05T09:13:47;7.95;;;3.20;;
3653;SDS011;70277;54.302;10.064;2023-06-05T09:16:13;9.75;;;3.05;;
3653;SDS011;70277;54.302;10.064;2023-06-05T09:18:53;8.07;;;3.15;;
3653;SDS011;70277;54.302;10.064;2023-06-05T09:21:24;6.38;;;3.00;;
3653;SDS011;70277;54.302;10.064;2023-06-05T09:29:32;6.25;;;2.63;;
3653;SDS011;70277;54.302;10.064;2023-06-05T09:32:00;4.90;;;2.72;;
3653;SDS011;70277;54.302;10.064;2023-06-05T09:34:29;7.72;;;3.22;;
3653;SDS011;70277;54.302;10.064;2023-06-05T09:37:01;7.75;;;3.10;;
3653;SDS011;70277;54.302;10.064;2023-06-05T09:39:29;7.63;;;2.88;;
3653;SDS011;70277;54.302;10.064;2023-06-05T09:41:57;4.70;;;2.53;;
3653;SDS011;70277;54.302;10.064;2023-06-05T09:44:25;5.18;;;2.42;;
3653;SDS011;70277;54.302;10.064;2023-06-05T09:46:54;11.07;;;3.00;;
3653;SDS011;70277;54.302;10.064;2023-06-05T09:49:29;11.73;;;3.13;;
3653;SDS011;70277;54.302;10.064;2023-06-05T09:51:58;4.47;;;2.75;;
3653;SDS011;70277;54.302;10.064;2023-06-05T09:56:58;6.97;;;3.20;;
3653;SDS011;70277;54.302;10.064;2023-06-05T09:59:29;5.95;;;2.70;;
3653;SDS011;70277;54.302;10.064;2023-06-05T10:02:01;5.43;;;2.95;;
3653;SDS011;70277;54.302;10.064;2023-06-05T10:04:32;5.28;;;2.95;;
3653;SDS011;70277;54.302;10.064;2023-06-05T10:07:05;7.72;;;2.97;;
3653;SDS011;70277;54.302;10.064;2023-06-05T10:09:31;5.70;;;3.20;;
3653;SDS011;70277;54.302;10.064;2023-06-05T10:11:59;6.10;;;3.10;;
3653;SDS011;70277;54.302;10.064;2023-06-05T10:14:27;6.30;;;2.50;;
3653;SDS011;70277;54.302;10.064;2023-06-05T10:16:54;7.20;;;2.67;;
3653;SDS011;70277;54.302;10.064;2023-06-05T10:19:21;2.72;;;2.35;;
3653;SDS011;70277;54.302;10.064;2023-06-05T10:21:50;6.13;;;2.25;;
3653;SDS011;70277;54.302;10.064;2023-06-05T10:24:21;7.22;;;2.63;;
3653;SDS011;70277;54.302;10.064;2023-06-05T10:29:32;3.35;;;2.30;;
3653;SDS011;70277;54.302;10.064;2023-06-05T10:40:44;5.60;;;2.55;;
3653;SDS011;70277;54.302;10.064;2023-06-05T10:43:28;9.43;;;2.88;;
3653;SDS011;70277;54.302;10.064;2023-06-05T10:46:00;6.93;;;2.55;;
3653;SDS011;70277;54.302;10.064;2023-06-05T10:51:42;4.97;;;2.30;;
3653;SDS011;70277;54.302;10.064;2023-06-05T10:54:14;17.03;;;2.80;;
3653;SDS011;70277;54.302;10.064;2023-06-05T10:57:01;5.55;;;2.70;;
3653;SDS011;70277;54.302;10.064;2023-06-05T10:59:30;8.35;;;2.80;;
3653;SDS011;70277;54.302;10.064;2023-06-05T11:15:03;7.68;;;2.55;;
3653;SDS011;70277;54.302;10.064;2023-06-05T11:17:37;6.97;;;2.42;;
3653;SDS011;70277;54.302;10.064;2023-06-05T11:20:05;13.05;;;2.70;;
3653;SDS011;70277;54.302;10.064;2023-06-05T11:27:51;7.37;;;2.40;;
3653;SDS011;70277;54.302;10.064;2023-06-05T11:30:19;12.10;;;3.13;;
3653;SDS011;70277;54.302;10.064;2023-06-05T11:33:07;9.82;;;3.03;;
3653;SDS011;70277;54.302;10.064;2023-06-05T11:35:39;8.95;;;2.53;;
3653;SDS011;70277;54.302;10.064;2023-06-05T11:38:08;10.50;;;2.70;;
3653;SDS011;70277;54.302;10.064;2023-06-05T11:40:39;6.43;;;2.65;;
3653;SDS011;70277;54.302;10.064;2023-06-05T11:43:08;10.35;;;2.80;;
3653;SDS011;70277;54.302;10.064;2023-06-05T11:45:36;4.17;;;2.53;;
3653;SDS011;70277;54.302;10.064;2023-06-05T11:48:04;5.50;;;2.55;;
3653;SDS011;70277;54.302;10.064;2023-06-05T11:50:32;13.37;;;2.23;;
3653;SDS011;70277;54.302;10.064;2023-06-05T11:53:06;6.90;;;2.55;;
3653;SDS011;70277;54.302;10.064;2023-06-05T11:55:34;6.07;;;2.38;;
3653;SDS011;70277;54.302;10.064;2023-06-05T11:58:26;4.82;;;2.25;;
3653;SDS011;70277;54.302;10.064;2023-06-05T12:01:07;4.00;;;2.50;;
3653;SDS011;70277;54.302;10.064;2023-06-05T12:03:38;7.60;;;2.63;;
3653;SDS011;70277;54.302;10.064;2023-06-05T12:06:05;8.90;;;2.75;;
3653;SDS011;70277;54.302;10.064;2023-06-05T12:08:33;3.85;;;2.03;;
3653;SDS011;70277;54.302;10.064;2023-06-05T12:11:02;4.55;;;2.63;;
3653;SDS011;70277;54.302;10.064;2023-06-05T12:13:45;7.05;;;2.40;;
3653;SDS011;70277;54.302;10.064;2023-06-05T12:16:20;5.10;;;2.30;;
3653;SDS011;70277;54.302;10.064;2023-06-05T12:18:57;7.03;;;2.30;;
3653;SDS011;70277;54.302;10.064;2023-06-05T12:21:39;6.60;;;2.63;;
3653;SDS011;70277;54.302;10.064;2023-06-05T12:24:06;8.10;;;2.92;;
3653;SDS011;70277;54.302;10.064;2023-06-05T12:26:49;3.92;;;2.40;;
3653;SDS011;70277;54.302;10.064;2023-06-05T12:29:25;12.57;;;2.55;;
3653;SDS011;70277;54.302;10.064;2023-06-05T12:31:55;6.13;;;2.30;;
3653;SDS011;70277;54.302;10.064;2023-06-05T12:37:31;8.52;;;2.30;;
3653;SDS011;70277;54.302;10.064;2023-06-05T12:40:01;4.45;;;2.42;;
3653;SDS011;70277;54.302;10.064;2023-06-05T12:42:33;5.55;;;2.40;;
3653;SDS011;70277;54.302;10.064;2023-06-05T12:45:03;6.57;;;2.33;;
3653;SDS011;70277;54.302;10.064;2023-06-05T12:47:31;7.80;;;2.88;;
3653;SDS011;70277;54.302;10.064;2023-06-05T12:49:57;5.47;;;2.42;;
3653;SDS011;70277;54.302;10.064;2023-06-05T12:52:24;8.68;;;2.80;;
3653;SDS011;70277;54.302;10.064;2023-06-05T12:54:53;9.63;;;1.90;;
3653;SDS011;70277;54.302;10.064;2023-06-05T12:57:20;8.00;;;2.75;;
3653;SDS011;70277;54.302;10.064;2023-06-05T12:59:47;5.93;;;2.50;;
3653;SDS011;70277;54.302;10.064;2023-06-05T13:02:13;6.47;;;2.70;;
3653;SDS011;70277;54.302;10.064;2023-06-05T13:04:40;6.40;;;2.70;;
3653;SDS011;70277;54.302;10.064;2023-06-05T13:07:07;4.70;;;2.40;;
3653;SDS011;70277;54.302;10.064;2023-06-05T13:09:34;5.28;;;2.63;;
3653;SDS011;70277;54.302;10.064;2023-06-05T13:12:00;6.55;;;2.40;;
3653;SDS011;70277;54.302;10.064;2023-06-05T13:14:30;6.18;;;2.50;;
3653;SDS011;70277;54.302;10.064;2023-06-05T13:16:57;6.40;;;2.63;;
3653;SDS011;70277;54.302;10.064;2023-06-05T13:19:25;5.10;;;2.70;;
3653;SDS011;70277;54.302;10.064;2023-06-05T13:21:52;5.97;;;2.35;;
3653;SDS011;70277;54.302;10.064;2023-06-05T13:24:19;6.45;;;2.95;;
3653;SDS011;70277;54.302;10.064;2023-06-05T13:26:46;4.43;;;2.15;;
3653;SDS011;70277;54.302;10.064;2023-06-05T13:29:15;14.63;;;2.88;;
3653;SDS011;70277;54.302;10.064;2023-06-05T13:31:42;8.30;;;2.88;;
3653;SDS011;70277;54.302;10.064;2023-06-05T13:34:08;5.70;;;2.80;;
3653;SDS011;70277;54.302;10.064;2023-06-05T13:36:35;9.02;;;2.40;;
3653;SDS011;70277;54.302;10.064;2023-06-05T13:39:02;7.13;;;2.40;;
3653;SDS011;70277;54.302;10.064;2023-06-05T13:41:30;5.07;;;2.78;;
3653;SDS011;70277;54.302;10.064;2023-06-05T13:43:56;4.57;;;2.40;;
3653;SDS011;70277;54.302;10.064;2023-06-05T13:46:24;4.85;;;2.60;;
3653;SDS011;70277;54.302;10.064;2023-06-05T13:48:52;6.00;;;3.33;;
3653;SDS011;70277;54.302;10.064;2023-06-05T13:51:19;7.93;;;3.40;;
3653;SDS011;70277;54.302;10.064;2023-06-05T13:53:45;6.47;;;3.53;;
3653;SDS011;70277;54.302;10.064;2023-06-05T13:56:12;9.07;;;3.40;;
3653;SDS011;70277;54.302;10.064;2023-06-05T13:58:38;18.23;;;3.55;;
3653;SDS011;70277;54.302;10.064;2023-06-05T14:01:05;9.07;;;3.78;;
3653;SDS011;70277;54.302;10.064;2023-06-05T14:03:31;9.65;;;3.05;;
3653;SDS011;70277;54.302;10.064;2023-06-05T14:05:58;13.98;;;3.45;;
3653;SDS011;70277;54.302;10.064;2023-06-05T14:08:25;9.20;;;3.38;;
3653;SDS011;70277;54.302;10.064;2023-06-05T14:10:53;5.70;;;3.10;;
3653;SDS011;70277;54.302;10.064;2023-06-05T14:13:20;7.85;;;2.97;;
3653;SDS011;70277;54.302;10.064;2023-06-05T14:15:46;13.60;;;3.00;;
3653;SDS011;70277;54.302;10.064;2023-06-05T14:18:13;7.28;;;2.90;;
3653;SDS011;70277;54.302;10.064;2023-06-05T14:20:40;10.45;;;2.92;;
3653;SDS011;70277;54.302;10.064;2023-06-05T14:23:07;7.57;;;3.38;;
3653;SDS011;70277;54.302;10.064;2023-06-05T14:25:33;11.05;;;3.20;;
3653;SDS011;70277;54.302;10.064;2023-06-05T14:28:00;10.65;;;3.15;;
3653;SDS011;70277;54.302;10.064;2023-06-05T14:30:26;17.92;;;3.65;;
3653;SDS011;70277;54.302;10.064;2023-06-05T14:32:53;7.97;;;3.10;;
3653;SDS011;70277;54.302;10.064;2023-06-05T14:35:21;14.48;;;3.30;;
3653;SDS011;70277;54.302;10.064;2023-06-05T14:37:48;6.30;;;2.90;;
3653;SDS011;70277;54.302;10.064;2023-06-05T14:40:15;5.53;;;2.80;;
3653;SDS011;70277;54.302;10.064;2023-06-05T14:42:41;10.60;;;2.83;;
3653;SDS011;70277;54.302;10.064;2023-06-05T14:45:08;5.35;;;2.70;;
3653;SDS011;70277;54.302;10.064;2023-06-05T14:47:35;7.40;;;2.70;;
3653;SDS011;70277;54.302;10.064;2023-06-05T14:50:05;7.40;;;2.83;;
3653;SDS011;70277;54.302;10.064;2023-06-05T14:52:33;7.07;;;2.97;;
3653;SDS011;70277;54.302;10.064;2023-06-05T14:55:00;2.78;;;2.47;;
3653;SDS011;70277;54.302;10.064;2023-06-05T14:57:31;7.07;;;2.90;;
3653;SDS011;70277;54.302;10.064;2023-06-05T15:00:00;10.73;;;2.78;;
3653;SDS011;70277;54.302;10.064;2023-06-05T15:02:27;6.43;;;2.83;;
3653;SDS011;70277;54.302;10.064;2023-06-05T15:04:54;7.00;;;3.10;;
3653;SDS011;70277;54.302;10.064;2023-06-05T15:07:22;9.10;;;3.15;;
3653;SDS011;70277;54.302;10.064;2023-06-05T15:09:49;7.50;;;3.25;;
3653;SDS011;70277;54.302;10.064;2023-06-05T15:12:17;9.60;;;3.60;;
3653;SDS011;70277;54.302;10.064;2023-06-05T15:14:43;7.28;;;3.60;;
3653;SDS011;70277;54.302;10.064;2023-06-05T15:17:10;7.45;;;3.03;;
3653;SDS011;70277;54.302;10.064;2023-06-05T15:19:36;5.28;;;2.70;;
3653;SDS011;70277;54.302;10.064;2023-06-05T15:22:03;8.40;;;2.88;;
3653;SDS011;70277;54.302;10.064;2023-06-05T15:24:32;6.28;;;2.75;;
3653;SDS011;70277;54.302;10.064;2023-06-05T15:27:00;6.43;;;2.90;;
3653;SDS011;70277;54.302;10.064;2023-06-05T15:29:27;9.00;;;3.10;;
3653;SDS011;70277;54.302;10.064;2023-06-05T15:31:53;6.85;;;2.88;;
3653;SDS011;70277;54.302;10.064;2023-06-05T15:34:33;9.88;;;3.08;;
3653;SDS011;70277;54.302;10.064;2023-06-05T15:36:59;10.85;;;3.05;;
3653;SDS011;70277;54.302;10.064;2023-06-05T15:39:26;6.05;;;2.30;;
3653;SDS011;70277;54.302;10.064;2023-06-05T15:41:52;10.40;;;2.63;;
3653;SDS011;70277;54.302;10.064;2023-06-05T15:44:18;10.55;;;3.08;;
3653;SDS011;70277;54.302;10.064;2023-06-05T15:46:45;8.65;;;2.83;;
3653;SDS011;70277;54.302;10.064;2023-06-05T15:49:12;9.32;;;2.95;;